Time;durP1;ratioP1;P1;durP2;ratioP2;P2;SDS_P1;SDS_P2;PMS_P1;PMS_P2;Temp;Humidity;BMP_temperature;BMP_pressure;BME280_temperature;BME280_humidity;BME280_pressure;Samples;Min_cycle;Max_cycle;Signal;HPM_P1;HPM_P2
2021/03/08 00:01:44;;;;;;;28.90;18.45;;;5.40;81.10;;;;;;5150572;27;20641;-80
2021/03/08 00:04:12;;;;;;;22.92;16.65;;;5.40;81.60;;;;;;5150379;27;20577;-79
2021/03/08 00:06:39;;;;;;;24.88;18.20;;;5.50;81.50;;;;;;5150510;27;20236;-78
2021/03/08 00:09:06;;;;;;;25.60;18.02;;;5.50;81.20;;;;;;5150648;27;20191;-80
2021/03/08 00:11:37;;;;;;;25.50;17.20;;;5.60;81.10;;;;;;5150450;27;20251;-79
2021/03/08 00:14:07;;;;;;;25.77;16.27;;;5.60;81.00;;;;;;5149369;27;20199;-80
2021/03/08 00:16:34;;;;;;;23.30;16.00;;;5.50;80.20;;;;;;5136324;27;20196;-80
2021/03/08 00:19:00;;;;;;;23.92;16.35;;;5.40;81.60;;;;;;5136545;27;20205;-79
2021/03/08 00:21:29;;;;;;;23.98;17.10;;;5.40;80.70;;;;;;5136438;27;20195;-80
2021/03/08 00:23:58;;;;;;;23.48;16.50;;;5.40;81.50;;;;;;5135908;27;20241;-79
2021/03/08 00:26:26;;;;;;;21.90;16.00;;;5.40;81.70;;;;;;5136413;27;20192;-79
2021/03/08 00:28:53;;;;;;;18.23;15.00;;;5.40;81.30;;;;;;5136427;27;20226;-79
2021/03/08 00:31:20;;;;;;;20.08;15.90;;;5.40;81.30;;;;;;5136156;27;20188;-79
2021/03/08 00:33:51;;;;;;;23.20;16.00;;;5.50;81.30;;;;;;5136137;27;20642;-79
2021/03/08 00:36:18;;;;;;;23.20;15.60;;;5.50;81.20;;;;;;5136286;27;20515;-80
2021/03/08 00:38:45;;;;;;;22.73;16.48;;;5.50;81.10;;;;;;5136285;27;20198;-80
2021/03/08 00:41:11;;;;;;;22.85;15.90;;;5.60;81.00;;;;;;5136297;27;20214;-80
2021/03/08 00:43:38;;;;;;;20.73;14.60;;;5.60;80.90;;;;;;5136152;27;20360;-80
2021/03/08 00:46:05;;;;;;;19.50;14.15;;;5.60;81.00;;;;;;5136251;27;20270;-80
2021/03/08 00:48:32;;;;;;;21.60;16.80;;;5.60;81.10;;;;;;5135873;27;20192;-80
2021/03/08 00:51:01;;;;;;;24.55;16.13;;;5.60;81.60;;;;;;5136164;27;20187;-79
2021/03/08 00:53:27;;;;;;;21.38;16.23;;;5.60;80.50;;;;;;5135865;27;20192;-80
2021/03/08 00:55:54;;;;;;;22.92;17.05;;;5.70;80.60;;;;;;5135926;27;20202;-79
2021/03/08 00:58:26;;;;;;;21.10;15.00;;;5.70;80.70;;;;;;5135841;27;20188;-80
2021/03/08 01:00:53;;;;;;;20.83;15.13;;;5.60;80.70;;;;;;5135901;27;20187;-80
2021/03/08 01:03:21;;;;;;;22.63;15.63;;;5.70;80.90;;;;;;5135460;27;20253;-79
2021/03/08 01:05:51;;;;;;;22.65;14.90;;;5.70;80.90;;;;;;5135672;27;20190;-79
2021/03/08 01:08:18;;;;;;;21.13;15.68;;;5.60;80.20;;;;;;5135674;27;20279;-79
2021/03/08 01:10:45;;;;;;;21.33;15.43;;;5.60;80.30;;;;;;5135359;27;20646;-79
2021/03/08 01:13:11;;;;;;;23.02;14.98;;;5.60;80.40;;;;;;5135630;27;20255;-79
2021/03/08 01:15:38;;;;;;;22.67;15.85;;;5.60;80.20;;;;;;5135788;27;20585;-79
2021/03/08 01:18:07;;;;;;;29.02;16.73;;;5.70;80.20;;;;;;5135297;27;20251;-80
2021/03/08 01:20:34;;;;;;;20.67;15.35;;;5.70;80.00;;;;;;5135260;27;20653;-80
2021/03/08 01:23:02;;;;;;;24.77;16.45;;;5.70;80.00;;;;;;5135276;27;20211;-80
2021/03/08 01:25:30;;;;;;;19.88;14.00;;;5.70;79.60;;;;;;5135479;27;20187;-81
2021/03/08 01:27:58;;;;;;;23.58;15.20;;;5.70;78.70;;;;;;5134435;27;20222;-80
2021/03/08 01:30:29;;;;;;;20.48;14.63;;;5.60;78.60;;;;;;5135105;27;20687;-80
2021/03/08 01:32:56;;;;;;;23.67;16.65;;;5.60;79.30;;;;;;5135210;27;20605;-80
2021/03/08 01:35:23;;;;;;;27.10;18.33;;;5.50;80.10;;;;;;5135104;27;20188;-80
2021/03/08 01:37:50;;;;;;;26.27;16.58;;;5.50;81.40;;;;;;5135290;27;20537;-80
2021/03/08 01:40:19;;;;;;;23.08;15.07;;;5.50;80.50;;;;;;5135173;27;20202;-79
2021/03/08 01:42:46;;;;;;;30.92;17.73;;;5.50;81.00;;;;;;5134809;27;20641;-79
2021/03/08 01:45:14;;;;;;;23.42;15.07;;;5.50;80.80;;;;;;5134921;27;20207;-79
2021/03/08 01:47:42;;;;;;;25.60;17.35;;;5.50;80.90;;;;;;5134868;27;20192;-79
2021/03/08 01:50:13;;;;;;;20.08;15.63;;;5.50;80.90;;;;;;5134815;27;20248;-79
2021/03/08 01:52:40;;;;;;;23.08;16.33;;;5.50;80.90;;;;;;5134723;27;20199;-79
2021/03/08 01:55:08;;;;;;;22.75;15.65;;;5.50;81.00;;;;;;5134941;27;20196;-80
2021/03/08 01:57:37;;;;;;;19.85;15.20;;;5.40;80.80;;;;;;5134717;27;20194;-80
2021/03/08 02:00:06;;;;;;;19.92;14.90;;;5.40;80.90;;;;;;5134591;27;20286;-80
2021/03/08 02:02:32;;;;;;;23.27;15.38;;;5.40;81.00;;;;;;5134621;27;20184;-79
2021/03/08 02:05:00;;;;;;;24.23;14.43;;;5.40;81.00;;;;;;5134644;27;20215;-80
2021/03/08 02:07:26;;;;;;;22.75;16.27;;;5.40;81.10;;;;;;5134352;27;20192;-79
2021/03/08 02:09:53;;;;;;;21.98;15.95;;;5.30;80.70;;;;;;5134462;27;20562;-80
2021/03/08 02:12:28;;;;;;;25.65;16.00;;;5.40;81.20;;;;;;5134410;27;20192;-80
2021/03/08 02:15:11;;;;;;;20.73;14.55;;;5.40;81.50;;;;;;5134458;27;20222;-80
2021/03/08 02:17:45;;;;;;;20.65;14.10;;;5.40;81.40;;;;;;5134507;27;20507;-79
2021/03/08 02:20:38;;;;;;;24.60;15.52;;;5.40;80.70;;;;;;5134249;27;20267;-79
2021/03/08 02:23:36;;;;;;;24.15;15.60;;;5.40;80.90;;;;;;5134165;27;20227;-80
2021/03/08 02:26:25;;;;;;;22.88;16.10;;;5.30;81.20;;;;;;5134300;27;20308;-80
2021/03/08 02:29:09;;;;;;;24.48;15.50;;;5.30;82.20;;;;;;5134034;27;20214;-80
2021/03/08 02:31:38;;;;;;;19.92;13.73;;;5.30;81.80;;;;;;5133999;27;20184;-80
2021/03/08 02:34:08;;;;;;;22.00;16.25;;;5.20;81.70;;;;;;5134107;27;20196;-80
2021/03/08 02:36:39;;;;;;;23.13;14.30;;;5.20;82.10;;;;;;5134016;27;20600;-80
2021/03/08 02:39:10;;;;;;;23.27;14.52;;;5.20;82.00;;;;;;5133787;27;20191;-80
2021/03/08 02:41:37;;;;;;;24.63;14.75;;;5.20;81.70;;;;;;5133973;27;20188;-79
2021/03/08 02:44:08;;;;;;;22.73;14.48;;;5.20;81.80;;;;;;5133742;27;20226;-80
2021/03/08 02:46:37;;;;;;;21.58;15.18;;;5.20;81.80;;;;;;5134048;27;20526;-80
2021/03/08 02:49:06;;;;;;;26.30;15.48;;;5.30;81.70;;;;;;5133956;27;20200;-80
2021/03/08 02:51:40;;;;;;;20.40;13.43;;;5.30;81.80;;;;;;5133958;27;20253;-80
2021/03/08 02:54:08;;;;;;;25.40;16.05;;;5.30;82.10;;;;;;5133820;27;20195;-79
2021/03/08 02:56:36;;;;;;;18.23;13.60;;;5.30;81.60;;;;;;5133870;27;20245;-80
2021/03/08 02:59:06;;;;;;;25.67;15.45;;;5.30;81.50;;;;;;5133994;27;20241;-80
2021/03/08 03:01:35;;;;;;;20.08;15.10;;;5.30;81.40;;;;;;5133704;27;20202;-79
2021/03/08 03:04:05;;;;;;;19.77;14.93;;;5.30;81.50;;;;;;5133532;28;20223;-80
2021/03/08 03:06:35;;;;;;;19.45;14.70;;;5.20;81.30;;;;;;5133541;28;20282;-80
2021/03/08 03:09:05;;;;;;;19.27;14.55;;;5.10;80.80;;;;;;5133574;28;20191;-80
2021/03/08 03:11:33;;;;;;;20.55;14.65;;;5.00;80.70;;;;;;5133671;28;20191;-80
2021/03/08 03:14:01;;;;;;;24.02;14.70;;;5.00;81.30;;;;;;5133643;28;20237;-80
2021/03/08 03:16:29;;;;;;;19.00;12.93;;;5.00;81.70;;;;;;5133850;28;20199;-80
2021/03/08 03:18:57;;;;;;;19.70;14.35;;;4.90;81.60;;;;;;5134059;28;20617;-79
2021/03/08 03:21:29;;;;;;;19.00;14.93;;;4.90;82.10;;;;;;5133903;28;20230;-80
2021/03/08 03:23:58;;;;;;;27.58;14.93;;;4.80;82.40;;;;;;5133757;28;20254;-79
2021/03/08 03:26:26;;;;;;;19.17;14.30;;;4.90;82.40;;;;;;5133861;28;20183;-79
2021/03/08 03:28:53;;;;;;;22.55;13.70;;;4.90;82.20;;;;;;5133814;28;20192;-79
2021/03/08 03:31:22;;;;;;;20.20;14.45;;;4.90;82.10;;;;;;5133654;28;20215;-79
2021/03/08 03:33:49;;;;;;;20.05;13.55;;;4.90;82.20;;;;;;5133562;27;20191;-80
2021/03/08 03:36:16;;;;;;;19.00;12.93;;;4.90;82.00;;;;;;5149427;27;20518;-79
2021/03/08 03:38:45;;;;;;;21.70;13.15;;;4.80;81.50;;;;;;5133614;27;20195;-79
2021/03/08 03:41:12;;;;;;;19.92;13.13;;;4.80;81.40;;;;;;5133707;28;20241;-79
2021/03/08 03:43:39;;;;;;;17.27;12.02;;;4.80;81.50;;;;;;5133525;28;20230;-79
2021/03/08 03:46:06;;;;;;;20.60;14.00;;;4.80;81.70;;;;;;5133706;28;20198;-80
2021/03/08 03:48:33;;;;;;;19.10;14.70;;;4.80;82.10;;;;;;5133596;28;20649;-80
2021/03/08 03:51:00;;;;;;;17.80;12.90;;;4.80;82.10;;;;;;5136266;27;20191;-79
2021/03/08 03:53:27;;;;;;;17.30;13.32;;;4.90;81.70;;;;;;5137273;27;20184;-80
2021/03/08 03:55:57;;;;;;;19.13;13.45;;;4.80;81.50;;;;;;5137542;27;20203;-79
2021/03/08 03:58:30;;;;;;;15.95;11.50;;;4.80;81.30;;;;;;5137223;27;20223;-80
2021/03/08 04:01:01;;;;;;;17.88;12.10;;;4.70;79.60;;;;;;5137515;27;20194;-79
2021/03/08 04:03:32;;;;;;;18.73;12.20;;;4.60;79.20;;;;;;5137039;27;20269;-79
2021/03/08 04:06:01;;;;;;;19.27;13.15;;;4.40;79.70;;;;;;5137326;27;20642;-79
2021/03/08 04:08:29;;;;;;;16.95;12.63;;;4.30;80.60;;;;;;5137307;27;20191;-79
2021/03/08 04:11:01;;;;;;;19.65;12.25;;;4.30;81.30;;;;;;5137236;27;20215;-79
2021/03/08 04:13:31;;;;;;;17.73;12.95;;;4.40;81.80;;;;;;5137296;27;20192;-79
2021/03/08 04:15:58;;;;;;;23.17;13.77;;;4.40;82.40;;;;;;5137019;27;20196;-79
2021/03/08 04:18:26;;;;;;;20.92;14.35;;;4.40;82.90;;;;;;5137106;27;20195;-79
2021/03/08 04:20:57;;;;;;;18.98;13.50;;;4.50;83.00;;;;;;5137158;27;20203;-79
2021/03/08 04:23:24;;;;;;;39.65;22.83;;;4.40;82.30;;;;;;5137077;27;20561;-79
2021/03/08 04:25:51;;;;;;;60.10;29.85;;;4.30;82.20;;;;;;5137023;27;20222;-79
2021/03/08 04:28:20;;;;;;;22.63;16.02;;;4.30;83.20;;;;;;5136908;27;20192;-79
2021/03/08 04:30:48;;;;;;;18.50;13.70;;;4.20;83.20;;;;;;5136860;27;20232;-79
2021/03/08 04:33:16;;;;;;;21.48;13.60;;;4.30;83.40;;;;;;5137060;27;20191;-79
2021/03/08 04:35:45;;;;;;;21.42;14.85;;;4.20;82.70;;;;;;5136859;27;20235;-79
2021/03/08 04:38:12;;;;;;;24.83;16.27;;;4.10;82.80;;;;;;5136678;27;20211;-79
2021/03/08 04:40:39;;;;;;;23.17;15.40;;;4.10;83.30;;;;;;5136537;27;20192;-79
2021/03/08 04:43:07;;;;;;;26.10;13.25;;;4.10;84.00;;;;;;5137090;27;20211;-80
2021/03/08 04:45:35;;;;;;;22.73;14.20;;;4.20;84.40;;;;;;5136752;27;20231;-79
2021/03/08 04:48:04;;;;;;;21.42;14.77;;;4.30;84.50;;;;;;5136636;27;20565;-79
2021/03/08 04:50:31;;;;;;;18.95;12.75;;;4.30;84.00;;;;;;5136719;27;20289;-79
2021/03/08 04:52:58;;;;;;;21.27;13.55;;;4.30;83.90;;;;;;5136315;27;20717;-79
2021/03/08 04:55:28;;;;;;;19.08;13.65;;;4.40;84.40;;;;;;5136552;27;20191;-80
2021/03/08 04:57:55;;;;;;;22.05;15.68;;;4.40;84.20;;;;;;5136575;27;20215;-80
2021/03/08 05:00:22;;;;;;;21.98;16.05;;;4.40;83.80;;;;;;5136393;27;20531;-79
2021/03/08 05:02:53;;;;;;;21.05;15.18;;;4.50;83.60;;;;;;5136182;27;20589;-79
2021/03/08 05:05:24;;;;;;;20.95;14.80;;;4.50;83.40;;;;;;5136134;27;20219;-79
2021/03/08 05:07:56;;;;;;;21.70;15.82;;;4.50;82.20;;;;;;5136040;27;20196;-80
2021/03/08 05:10:27;;;;;;;24.35;15.15;;;4.40;82.10;;;;;;5135888;27;20191;-79
2021/03/08 05:12:54;;;;;;;20.85;13.57;;;4.30;82.30;;;;;;5136191;27;20275;-79
2021/03/08 05:15:24;;;;;;;18.58;14.23;;;4.40;82.90;;;;;;5136099;27;20256;-79
2021/03/08 05:17:55;;;;;;;27.30;17.20;;;4.40;83.10;;;;;;5135986;27;20263;-79
2021/03/08 05:20:23;;;;;;;24.55;17.65;;;4.40;83.40;;;;;;5135910;27;20196;-80
2021/03/08 05:22:53;;;;;;;25.45;17.55;;;4.40;83.60;;;;;;5135830;27;20697;-79
2021/03/08 05:25:21;;;;;;;21.75;15.73;;;4.40;83.70;;;;;;5135562;27;20220;-79
2021/03/08 05:27:50;;;;;;;25.08;17.52;;;4.40;83.40;;;;;;5135627;27;20279;-79
2021/03/08 05:30:20;;;;;;;25.05;17.52;;;4.30;82.60;;;;;;5135839;27;20203;-79
2021/03/08 05:32:52;;;;;;;27.98;17.15;;;4.30;82.30;;;;;;5135604;27;20201;-79
2021/03/08 05:35:21;;;;;;;27.50;16.67;;;4.30;82.20;;;;;;5135656;27;20241;-79
2021/03/08 05:37:50;;;;;;;21.10;15.95;;;4.30;82.50;;;;;;5137440;27;20186;-79
2021/03/08 05:40:26;;;;;;;27.02;17.85;;;4.30;82.50;;;;;;5155373;27;20269;-78
2021/03/08 05:43:02;;;;;;;20.77;16.05;;;4.30;82.70;;;;;;5153127;27;20187;-79
2021/03/08 05:45:33;;;;;;;28.02;17.58;;;4.40;82.90;;;;;;5155629;27;20187;-74
2021/03/08 05:48:39;;;;;;;25.02;17.20;;;4.40;83.30;;;;;;5155397;27;20225;-74
2021/03/08 05:51:46;;;;;;;23.88;16.77;;;4.40;83.50;;;;;;5155354;27;20183;-74
2021/03/08 05:54:55;;;;;;;23.23;17.40;;;4.40;83.50;;;;;;5153219;27;20281;-77
2021/03/08 05:57:46;;;;;;;26.92;18.13;;;4.40;83.90;;;;;;5136992;27;20178;-84
2021/03/08 06:00:20;;;;;;;29.95;17.75;;;4.40;83.30;;;;;;5155362;27;20243;-82
2021/03/08 06:02:57;;;;;;;25.48;17.55;;;4.50;82.90;;;;;;5154602;27;20297;-81
2021/03/08 06:06:05;;;;;;;25.90;16.40;;;4.40;82.60;;;;;;5155174;27;20609;-82
2021/03/08 06:09:03;;;;;;;23.73;17.73;;;4.50;82.90;;;;;;5154167;27;20205;-81
2021/03/08 06:11:33;;;;;;;25.67;17.58;;;4.50;82.60;;;;;;5113931;27;20641;-82
2021/03/08 06:14:03;;;;;;;28.88;17.83;;;4.50;82.50;;;;;;5139229;27;20197;-81
2021/03/08 06:16:35;;;;;;;25.38;18.45;;;4.50;82.30;;;;;;5154148;27;20636;-82
2021/03/08 06:19:06;;;;;;;22.23;16.23;;;4.60;82.00;;;;;;5154968;27;20555;-81
2021/03/08 06:21:36;;;;;;;23.80;17.38;;;4.60;81.50;;;;;;5155072;27;20214;-82
2021/03/08 06:24:06;;;;;;;25.45;16.73;;;4.60;80.70;;;;;;5154243;27;20215;-82
2021/03/08 06:26:34;;;;;;;25.13;17.33;;;4.60;82.20;;;;;;5153802;27;20190;-82
2021/03/08 06:29:02;;;;;;;24.13;16.92;;;4.60;81.40;;;;;;5154771;27;20636;-82
2021/03/08 06:31:36;;;;;;;25.75;18.40;;;4.60;81.70;;;;;;5153024;27;20228;-82
2021/03/08 06:34:03;;;;;;;23.17;15.60;;;4.70;81.10;;;;;;5154420;27;20654;-82
2021/03/08 06:36:33;;;;;;;28.02;17.25;;;4.70;81.00;;;;;;5146247;27;20252;-79
2021/03/08 06:39:05;;;;;;;28.20;17.48;;;4.60;80.70;;;;;;5121409;27;20230;-83
2021/03/08 06:41:33;;;;;;;25.20;16.23;;;4.60;80.70;;;;;;5116731;27;20276;-79
2021/03/08 06:44:04;;;;;;;21.33;16.38;;;4.60;80.50;;;;;;5122882;27;21158;-82
2021/03/08 06:46:31;;;;;;;24.02;16.67;;;4.60;80.30;;;;;;5118255;27;20207;-79
2021/03/08 06:49:01;;;;;;;30.50;19.77;;;4.70;80.70;;;;;;5122723;27;20194;-82
2021/03/08 06:51:29;;;;;;;24.02;17.08;;;4.80;81.30;;;;;;5124178;27;21015;-79
2021/03/08 06:53:56;;;;;;;26.85;17.23;;;4.80;81.50;;;;;;5117318;27;20198;-82
2021/03/08 06:56:34;;;;;;;21.27;16.23;;;4.90;81.40;;;;;;5129552;27;20571;-80
2021/03/08 06:59:07;;;;;;;26.48;17.55;;;4.90;80.90;;;;;;5120302;27;21185;-80
2021/03/08 07:01:36;;;;;;;23.77;17.52;;;4.90;80.50;;;;;;5112085;27;20199;-77
2021/03/08 07:04:12;;;;;;;26.13;16.08;;;5.00;80.20;;;;;;5124171;27;21087;-83
2021/03/08 07:06:39;;;;;;;23.73;16.40;;;5.00;79.40;;;;;;5117473;27;20202;-81
2021/03/08 07:09:12;;;;;;;22.17;17.00;;;5.00;79.40;;;;;;5125775;27;20645;-82
2021/03/08 07:11:39;;;;;;;21.60;15.80;;;5.00;79.40;;;;;;5118261;27;20213;-79
2021/03/08 07:14:22;;;;;;;22.15;16.73;;;5.00;79.50;;;;;;5124311;27;20207;-82
2021/03/08 07:16:49;;;;;;;24.10;17.48;;;5.10;79.80;;;;;;5118938;27;20924;-82
2021/03/08 07:19:17;;;;;;;25.77;17.67;;;5.10;79.20;;;;;;5133980;27;20226;-81
2021/03/08 07:21:51;;;;;;;27.35;17.50;;;5.10;79.60;;;;;;5114270;27;20198;-81
2021/03/08 07:24:18;;;;;;;27.10;16.80;;;5.10;79.00;;;;;;5123606;27;20222;-82
2021/03/08 07:26:53;;;;;;;25.20;16.83;;;5.20;79.30;;;;;;5118522;27;20660;-81
2021/03/08 07:29:22;;;;;;;27.48;18.88;;;5.20;79.00;;;;;;5129759;27;20201;-82
2021/03/08 07:31:51;;;;;;;24.75;17.45;;;5.30;78.50;;;;;;5111279;27;20386;-82
2021/03/08 07:34:22;;;;;;;33.47;20.52;;;5.30;78.20;;;;;;5129603;27;20198;-82
2021/03/08 07:36:58;;;;;;;25.65;18.90;;;5.40;77.70;;;;;;5117408;27;20227;-81
2021/03/08 07:39:27;;;;;;;28.08;19.90;;;5.50;76.50;;;;;;5131947;27;20198;-82
2021/03/08 07:41:58;;;;;;;25.88;16.90;;;5.50;75.90;;;;;;5117166;27;20209;-82
2021/03/08 07:44:29;;;;;;;26.35;20.50;;;5.70;76.00;;;;;;5123550;27;20219;-80
2021/03/08 07:46:57;;;;;;;25.10;18.02;;;5.80;75.60;;;;;;5118342;27;20675;-79
2021/03/08 07:49:35;;;;;;;24.15;18.00;;;5.80;74.80;;;;;;5120568;27;20207;-80
2021/03/08 07:52:09;;;;;;;22.92;15.60;;;5.90;73.60;;;;;;5128772;27;20216;-81
2021/03/08 07:54:53;;;;;;;19.38;15.25;;;5.90;73.00;;;;;;5121661;27;20527;-77
2021/03/08 07:57:21;;;;;;;19.92;14.55;;;5.80;70.50;;;;;;5126567;27;20202;-80
2021/03/08 07:59:49;;;;;;;20.27;14.52;;;5.80;69.50;;;;;;5118690;27;20572;-80
2021/03/08 08:02:16;;;;;;;18.55;14.35;;;5.60;67.90;;;;;;5123940;27;20238;-80
2021/03/08 08:04:44;;;;;;;19.20;15.07;;;5.60;67.60;;;;;;5121346;27;20230;-78
2021/03/08 08:07:15;;;;;;;21.73;17.38;;;5.50;67.80;;;;;;5129720;27;20203;-81
2021/03/08 08:09:44;;;;;;;21.23;15.93;;;5.50;67.70;;;;;;5123108;27;20214;-79
2021/03/08 08:12:14;;;;;;;20.10;14.65;;;5.50;67.30;;;;;;5132707;27;20191;-83
2021/03/08 08:14:42;;;;;;;18.42;16.17;;;5.40;67.40;;;;;;5119795;27;20203;-79
2021/03/08 08:17:14;;;;;;;21.65;15.20;;;5.40;66.90;;;;;;5126993;27;20202;-81
2021/03/08 08:19:45;;;;;;;20.95;15.00;;;5.50;67.60;;;;;;5125683;27;20590;-79
2021/03/08 08:22:30;;;;;;;24.45;17.95;;;5.50;67.80;;;;;;5121883;27;20655;-82
2021/03/08 08:24:58;;;;;;;20.77;16.10;;;5.50;68.50;;;;;;5123587;27;20971;-83
2021/03/08 08:27:28;;;;;;;22.60;16.45;;;5.50;68.90;;;;;;5134991;27;20198;-82
2021/03/08 08:30:00;;;;;;;20.02;16.83;;;5.60;67.90;;;;;;5121625;27;20194;-83
2021/03/08 08:32:48;;;;;;;21.75;16.17;;;5.60;67.30;;;;;;5130509;27;20606;-84
2021/03/08 08:35:18;;;;;;;21.40;14.52;;;5.70;68.70;;;;;;5127621;27;20556;-84
2021/03/08 08:38:22;;;;;;;19.88;14.40;;;5.70;67.50;;;;;;5119724;27;20686;-83
2021/03/08 08:41:18;;;;;;;20.92;14.27;;;5.80;67.00;;;;;;5117424;27;20195;-84
2021/03/08 08:43:45;;;;;;;16.23;13.00;;;5.80;66.80;;;;;;5116017;27;20231;-82
2021/03/08 08:46:33;;;;;;;18.52;14.57;;;5.80;66.00;;;;;;5127750;27;20279;-84
2021/03/08 08:49:09;;;;;;;20.30;14.80;;;5.90;65.40;;;;;;5119854;27;20210;-83
2021/03/08 08:51:47;;;;;;;17.70;13.73;;;5.80;65.40;;;;;;5119147;27;20557;-80
2021/03/08 08:54:47;;;;;;;18.08;13.52;;;5.90;64.70;;;;;;5129457;27;20202;-84
2021/03/08 08:57:15;;;;;;;20.70;14.00;;;5.90;64.30;;;;;;5147559;27;20276;-85
2021/03/08 08:59:49;;;;;;;17.90;13.60;;;5.90;64.90;;;;;;5154088;27;20226;-83
2021/03/08 09:02:33;;;;;;;19.77;14.50;;;6.00;64.30;;;;;;5152140;27;20191;-84
2021/03/08 09:05:01;;;;;;;18.23;13.23;;;6.00;63.40;;;;;;5139099;27;20218;-83
2021/03/08 09:07:43;;;;;;;18.10;13.70;;;6.10;63.80;;;;;;5143282;27;20194;-83
2021/03/08 09:10:11;;;;;;;16.67;13.80;;;6.20;63.50;;;;;;5139704;27;20198;-82
2021/03/08 09:12:40;;;;;;;15.30;12.60;;;6.30;62.60;;;;;;5153740;27;20721;-84
2021/03/08 09:15:11;;;;;;;24.30;14.63;;;6.50;61.70;;;;;;5152968;27;20191;-83
2021/03/08 09:17:44;;;;;;;18.42;13.68;;;6.90;62.20;;;;;;5153904;27;20538;-80
2021/03/08 09:20:30;;;;;;;18.58;13.52;;;7.30;62.00;;;;;;5142983;27;20213;-84
2021/03/08 09:23:00;;;;;;;15.20;12.80;;;8.30;62.50;;;;;;5139203;27;20277;-84
2021/03/08 09:25:28;;;;;;;13.63;10.50;;;8.90;54.40;;;;;;5140402;27;20214;-85
2021/03/08 09:28:05;;;;;;;13.00;11.23;;;9.70;53.00;;;;;;5139756;27;20199;-86
2021/03/08 09:30:42;;;;;;;12.25;10.15;;;12.80;51.60;;;;;;5141558;27;20197;-86
2021/03/08 09:33:13;;;;;;;13.07;10.30;;;15.10;40.80;;;;;;5140690;27;20207;-86
2021/03/08 09:35:47;;;;;;;16.48;11.15;;;14.80;34.70;;;;;;5140236;27;20191;-87
2021/03/08 09:38:16;;;;;;;15.35;10.70;;;14.10;34.90;;;;;;5135125;27;20206;-85
2021/03/08 09:40:46;;;;;;;12.30;10.57;;;13.40;34.10;;;;;;5142269;27;20191;-86
2021/03/08 09:43:24;;;;;;;14.30;11.05;;;12.70;34.20;;;;;;5134811;27;20206;-86
2021/03/08 09:46:02;;;;;;;13.70;10.50;;;12.00;34.30;;;;;;5140967;27;20199;-85
2021/03/08 09:48:35;;;;;;;12.00;9.82;;;11.40;35.50;;;;;;5135843;27;20184;-85
2021/03/08 09:51:09;;;;;;;13.30;10.88;;;11.00;37.30;;;;;;5140343;27;20210;-85
2021/03/08 09:53:43;;;;;;;13.82;9.98;;;10.70;38.90;;;;;;5137253;27;20278;-85
2021/03/08 09:56:15;;;;;;;13.02;11.50;;;10.50;38.70;;;;;;5144531;27;20550;-85
2021/03/08 09:58:45;;;;;;;13.13;10.75;;;10.30;37.50;;;;;;5141036;27;20206;-86
2021/03/08 10:01:16;;;;;;;14.60;10.27;;;10.10;38.40;;;;;;5142785;27;20194;-84
2021/03/08 10:03:49;;;;;;;14.50;11.07;;;10.00;39.60;;;;;;5142481;27;20247;-86
2021/03/08 10:06:25;;;;;;;15.55;10.35;;;9.90;40.50;;;;;;5144453;27;20190;-85
2021/03/08 10:08:54;;;;;;;12.30;10.60;;;9.90;42.20;;;;;;5148810;27;20446;-85
2021/03/08 10:11:25;;;;;;;17.50;11.15;;;10.00;40.70;;;;;;5146798;27;20187;-86
2021/03/08 10:13:52;;;;;;;14.10;9.88;;;10.00;40.80;;;;;;5141245;27;20279;-86
2021/03/08 10:16:23;;;;;;;13.25;10.50;;;10.00;40.70;;;;;;5144910;27;20586;-85
2021/03/08 10:18:50;;;;;;;12.70;9.90;;;10.00;39.90;;;;;;5144722;27;20552;-81
2021/03/08 10:21:18;;;;;;;11.40;9.52;;;9.90;40.20;;;;;;5146623;27;20270;-86
2021/03/08 10:23:48;;;;;;;14.48;11.45;;;9.70;39.90;;;;;;5145250;27;20199;-85
2021/03/08 10:26:16;;;;;;;12.88;10.65;;;9.50;40.60;;;;;;5141993;27;20192;-86
2021/03/08 10:28:45;;;;;;;10.70;8.48;;;9.30;40.20;;;;;;5147926;27;20195;-84
2021/03/08 10:31:18;;;;;;;9.45;8.38;;;9.20;39.90;;;;;;5145017;27;20236;-85
2021/03/08 10:33:52;;;;;;;11.45;8.52;;;9.00;38.30;;;;;;5144845;27;20282;-85
2021/03/08 10:36:21;;;;;;;9.93;8.13;;;8.80;38.60;;;;;;5139519;27;20207;-85
2021/03/08 10:38:55;;;;;;;11.52;8.93;;;8.70;38.80;;;;;;5138215;27;20239;-85
2021/03/08 10:41:27;;;;;;;14.27;8.60;;;8.70;38.80;;;;;;5141606;27;20190;-85
2021/03/08 10:43:54;;;;;;;11.35;8.63;;;8.70;39.90;;;;;;5141579;27;20259;-85
2021/03/08 10:46:36;;;;;;;10.98;8.23;;;8.70;39.80;;;;;;5138260;27;20568;-85
2021/03/08 10:49:05;;;;;;;9.85;8.00;;;8.60;39.10;;;;;;5138397;27;20293;-86
2021/03/08 10:51:34;;;;;;;12.45;7.93;;;8.60;39.70;;;;;;5140920;27;20183;-86
2021/03/08 10:54:14;;;;;;;10.35;7.75;;;8.70;40.50;;;;;;5136476;27;20203;-85
2021/03/08 10:56:44;;;;;;;10.80;7.57;;;8.70;40.00;;;;;;5137239;27;20207;-88
2021/03/08 10:59:24;;;;;;;10.15;8.75;;;8.80;39.40;;;;;;5140105;27;20207;-85
2021/03/08 11:02:00;;;;;;;10.30;8.60;;;8.80;39.20;;;;;;5137708;27;20195;-85
2021/03/08 11:04:27;;;;;;;11.18;8.70;;;8.90;39.90;;;;;;5140412;27;20231;-87
2021/03/08 11:06:54;;;;;;;10.73;8.85;;;9.10;40.60;;;;;;5138578;27;20215;-85
2021/03/08 11:09:30;;;;;;;15.85;9.25;;;9.40;41.00;;;;;;5143231;27;20218;-82
2021/03/08 11:12:01;;;;;;;10.40;8.32;;;10.30;39.00;;;;;;5144578;27;20191;-88
2021/03/08 11:14:28;;;;;;;12.35;9.15;;;11.30;37.70;;;;;;5148639;27;20191;-87
2021/03/08 11:16:59;;;;;;;12.27;9.68;;;12.50;36.00;;;;;;5141223;27;20652;-89
2021/03/08 11:19:31;;;;;;;11.57;10.38;;;14.00;39.20;;;;;;5135423;27;20188;-87
2021/03/08 11:22:05;;;;;;;11.52;9.43;;;16.30;38.30;;;;;;5137591;27;20222;-90
2021/03/08 11:24:42;;;;;;;10.68;9.48;;;18.20;32.80;;;;;;5135637;27;20214;-91
2021/03/08 11:27:24;;;;;;;9.80;8.80;;;18.50;27.70;;;;;;5143053;27;20206;-89
2021/03/08 11:30:03;;;;;;;10.37;9.23;;;18.20;28.30;;;;;;5150888;27;20425;-91
2021/03/08 11:32:32;;;;;;;11.63;10.43;;;19.60;29.00;;;;;;5152166;27;20431;-90
2021/03/08 11:34:59;;;;;;;10.20;9.20;;;20.70;28.30;;;;;;5151168;27;20433;-91
2021/03/08 11:37:28;;;;;;;9.63;8.60;;;22.40;27.10;;;;;;5148974;27;20466;-91
2021/03/08 11:39:59;;;;;;;10.57;9.40;;;25.50;28.10;;;;;;5152705;27;20489;-91
2021/03/08 11:42:28;;;;;;;9.87;8.87;;;28.90;23.90;;;;;;5149391;27;20445;-87
2021/03/08 11:44:58;;;;;;;10.03;9.13;;;31.50;20.90;;;;;;5148329;27;20628;-91
2021/03/08 11:47:26;;;;;;;9.70;8.73;;;33.40;19.00;;;;;;5153691;27;20456;-92
2021/03/08 11:50:02;;;;;;;11.10;9.13;;;34.90;15.70;;;;;;5151870;27;20440;-88
2021/03/08 11:52:29;;;;;;;10.43;9.40;;;36.00;12.10;;;;;;5148213;27;21228;-89
2021/03/08 11:55:02;;;;;;;9.00;8.20;;;36.60;11.30;;;;;;5148127;27;20477;-89
2021/03/08 11:57:29;;;;;;;9.10;8.30;;;37.00;11.20;;;;;;5134195;27;20911;-87
2021/03/08 12:00:00;;;;;;;10.10;8.63;;;37.20;10.70;;;;;;5137941;27;20481;-90
2021/03/08 12:02:27;;;;;;;10.27;9.43;;;37.30;10.20;;;;;;5133121;27;20807;-87
2021/03/08 12:04:54;;;;;;;10.97;10.03;;;37.40;8.70;;;;;;5136394;27;20532;-88
2021/03/08 12:07:24;;;;;;;10.43;9.53;;;37.30;9.50;;;;;;5133083;27;20512;-88
2021/03/08 12:09:58;;;;;;;11.67;10.60;;;37.60;9.30;;;;;;5134500;27;20441;-89
2021/03/08 12:12:25;;;;;;;11.20;10.20;;;38.00;9.50;;;;;;5136454;27;20433;-89
2021/03/08 12:15:00;;;;;;;9.80;9.00;;;38.40;8.90;;;;;;5154295;27;20471;-89
2021/03/08 12:17:27;;;;;;;10.67;9.77;;;38.90;9.30;;;;;;5154961;27;20432;-89
2021/03/08 12:19:54;;;;;;;10.83;9.93;;;39.10;9.60;;;;;;5145345;27;20433;-90
2021/03/08 12:22:22;;;;;;;11.00;10.10;;;39.20;8.40;;;;;;5152105;27;20433;-89
2021/03/08 12:24:51;;;;;;;12.53;11.43;;;39.30;9.50;;;;;;5142444;27;20440;-88
2021/03/08 12:27:19;;;;;;;11.60;10.70;;;39.60;8.20;;;;;;5142171;27;20432;-87
2021/03/08 12:30:01;;;;;;;12.20;11.20;;;39.80;8.70;;;;;;5154017;27;20432;-84
2021/03/08 12:32:28;;;;;;;12.27;11.27;;;40.00;8.20;;;;;;5151988;27;20472;-89
2021/03/08 12:34:54;;;;;;;13.87;12.60;;;39.70;8.10;;;;;;5136637;27;20568;-83
2021/03/08 12:37:21;;;;;;;12.30;11.30;;;39.40;8.30;;;;;;5153203;27;20922;-89
2021/03/08 12:39:51;;;;;;;12.50;11.40;;;38.90;7.80;;;;;;5154059;27;20439;-88
2021/03/08 12:42:22;;;;;;;11.50;10.43;;;38.70;7.40;;;;;;5148892;27;20441;-88
2021/03/08 12:45:08;;;;;;;11.20;10.30;;;38.70;8.00;;;;;;5153705;27;20425;-89
2021/03/08 12:47:35;;;;;;;10.67;9.77;;;38.80;7.80;;;;;;5149598;27;20926;-88
2021/03/08 12:50:18;;;;;;;11.37;10.27;;;38.80;7.60;;;;;;5135744;27;20486;-88
2021/03/08 12:52:50;;;;;;;10.60;9.60;;;38.60;8.00;;;;;;5142000;27;20432;-88
2021/03/08 12:55:19;;;;;;;10.67;9.77;;;38.40;8.00;;;;;;5138770;27;20481;-88
2021/03/08 12:57:50;;;;;;;11.07;10.17;;;38.10;7.80;;;;;;5135730;27;20884;-89
2021/03/08 13:00:18;;;;;;;10.83;9.93;;;37.90;7.30;;;;;;5149005;27;20501;-87